createdAt,value
2022-08-09T00:04:03.548Z,25.95
2022-08-09T00:09:08.257Z,26.19
2022-08-09T00:14:08.591Z,26.17
2022-08-09T00:19:10.316Z,26.01
2022-08-09T00:24:08.105Z,26.04
2022-08-09T00:29:39.583Z,25.86
2022-08-09T00:34:33.426Z,25.78
2022-08-09T00:40:12.713Z,25.97
2022-08-09T00:44:48.969Z,25.29
2022-08-09T00:49:54.540Z,25.59
2022-08-09T00:54:55.362Z,25.56
2022-08-09T00:59:54.231Z,25.19
2022-08-09T01:04:58.048Z,25.50
2022-08-09T01:10:02.688Z,25.51
2022-08-09T01:15:06.075Z,25.04
2022-08-09T01:20:27.003Z,25.03
2022-08-09T01:26:01.766Z,24.83
2022-08-09T01:31:02.985Z,24.93
2022-08-09T01:36:07.252Z,24.84
2022-08-09T01:41:09.547Z,24.70
2022-08-09T01:46:09.840Z,24.83
2022-08-09T01:51:22.585Z,24.68
2022-08-09T01:56:22.151Z,24.84
2022-08-09T02:01:21.537Z,24.32
2022-08-09T02:06:58.669Z,24.86
2022-08-09T02:11:59.979Z,25.08
2022-08-09T02:17:59.159Z,25.15
2022-08-09T02:22:35.060Z,25.16
2022-08-09T02:27:58.139Z,25.10
2022-08-09T02:32:55.076Z,25.08
2022-08-09T02:37:57.907Z,24.86
2022-08-09T02:42:59.909Z,24.61
2022-08-09T02:48:02.891Z,24.45
2022-08-09T02:53:17.291Z,23.82
2022-08-09T02:58:36.945Z,23.69
2022-08-09T03:04:18.239Z,23.90
2022-08-09T03:08:57.258Z,24.00
2022-08-09T03:13:59.619Z,24.14
2022-08-09T03:19:01.609Z,23.82
2022-08-09T03:24:04.728Z,24.03
2022-08-09T03:29:02.539Z,24.22
2022-08-09T03:34:19.815Z,24.28
2022-08-09T03:39:20.074Z,23.94
2022-08-09T03:44:27.869Z,24.01
2022-08-09T03:49:35.665Z,24.45
2022-08-09T03:54:44.922Z,24.47
2022-08-09T03:59:52.827Z,24.51
2022-08-09T04:04:53.791Z,24.53
2022-08-09T04:09:53.725Z,24.68
2022-08-09T04:15:00.350Z,24.37
2022-08-09T04:20:02.535Z,24.78
2022-08-09T04:25:00.182Z,24.87
2022-08-09T04:29:58.684Z,24.69
2022-08-09T04:35:03.439Z,25.07
2022-08-09T04:40:02.295Z,24.88
2022-08-09T04:45:03.412Z,24.78
2022-08-09T04:50:07.032Z,24.59
2022-08-09T04:55:17.547Z,25.20
2022-08-09T05:00:23.378Z,25.65
2022-08-09T05:05:31.769Z,25.75
2022-08-09T05:10:38.984Z,25.64
2022-08-09T05:15:39.307Z,25.75
2022-08-09T05:20:40.763Z,25.64
2022-08-09T05:25:45.074Z,25.57
2022-08-09T05:30:48.714Z,25.78
2022-08-09T05:35:50.869Z,25.85
2022-08-09T05:40:50.587Z,26.43
2022-08-09T05:45:55.857Z,27.12
2022-08-09T05:51:16.735Z,27.52
2022-08-09T05:56:37.775Z,28.71
2022-08-09T06:01:58.996Z,29.86
2022-08-09T06:06:56.488Z,30.18
2022-08-09T06:11:57.671Z,30.21
2022-08-09T06:16:55.490Z,30.45
2022-08-09T06:21:58.393Z,31.47
2022-08-09T06:26:59.164Z,32.11
2022-08-09T06:32:24.620Z,31.77
2022-08-09T06:37:13.394Z,31.65
2022-08-09T06:42:11.608Z,31.47
2022-08-09T06:47:09.019Z,31.44
2022-08-09T06:52:06.662Z,31.92
2022-08-09T06:57:08.911Z,31.80
2022-08-09T07:02:11.496Z,31.88
2022-08-09T07:07:59.626Z,31.78
2022-08-09T07:13:05.425Z,32.59
2022-08-09T07:18:23.388Z,32.58
2022-08-09T07:23:22.844Z,32.66
2022-08-09T07:28:28.278Z,33.14
2022-08-09T07:33:26.524Z,34.05
2022-08-09T07:38:31.023Z,34.37
2022-08-09T07:43:41.154Z,34.68
2022-08-09T07:50:07.670Z,34.52
2022-08-09T07:55:41.465Z,35.15
2022-08-09T08:00:58.855Z,35.05
2022-08-09T08:06:09.580Z,35.47
2022-08-09T08:12:09.347Z,35.93
2022-08-09T08:17:07.630Z,36.05
2022-08-09T08:22:28.507Z,36.33
2022-08-09T08:27:27.043Z,36.60
2022-08-09T08:32:52.212Z,36.69
2022-08-09T08:38:11.416Z,37.09
2022-08-09T08:43:13.893Z,37.29
2022-08-09T08:48:31.739Z,37.68
2022-08-09T08:53:32.326Z,37.80
2022-08-09T08:58:38.946Z,37.87
2022-08-09T09:10:02.239Z,37.81
2022-08-09T09:15:33.735Z,37.68
2022-08-09T09:20:52.208Z,37.55
2022-08-09T09:26:16.709Z,37.85
2022-08-09T09:32:04.140Z,38.10
2022-08-09T09:36:39.202Z,38.17
2022-08-09T09:41:49.906Z,37.88
2022-08-09T09:47:00.062Z,37.66
2022-08-09T09:58:03.949Z,37.70
2022-08-09T10:03:09.219Z,37.72
2022-08-09T10:08:28.056Z,38.70
2022-08-09T10:13:43.236Z,39.23
2022-08-09T10:18:54.693Z,38.89
2022-08-09T10:24:01.143Z,38.14
2022-08-09T10:29:36.099Z,37.93
2022-08-09T10:34:33.528Z,37.93
2022-08-09T10:39:40.788Z,38.84
2022-08-09T10:44:55.062Z,39.17
2022-08-09T10:50:14.825Z,39.35
2022-08-09T10:55:23.569Z,38.85
2022-08-09T11:00:41.804Z,38.01
2022-08-09T11:06:19.930Z,37.94
2022-08-09T11:11:18.354Z,37.00
2022-08-09T11:16:37.310Z,36.73
2022-08-09T11:21:57.451Z,36.47
2022-08-09T11:28:05.486Z,35.85
2022-08-09T11:32:49.861Z,35.84
2022-08-09T11:37:50.343Z,35.75
2022-08-09T11:42:49.051Z,35.24
2022-08-09T11:47:47.702Z,35.40
2022-08-09T11:53:59.760Z,36.01
2022-08-09T11:58:48.172Z,35.61
2022-08-09T12:03:55.198Z,35.89
2022-08-09T12:09:21.133Z,36.12
2022-08-09T12:14:40.527Z,36.19
2022-08-09T12:20:27.902Z,35.49
2022-08-09T12:25:49.485Z,36.14
2022-08-09T12:31:57.955Z,36.30
2022-08-09T12:36:59.097Z,35.76
2022-08-09T12:42:25.803Z,35.41
2022-08-09T12:47:25.268Z,35.48
2022-08-09T12:52:22.426Z,35.55
2022-08-09T12:58:11.673Z,35.57
2022-08-09T13:03:57.054Z,35.54
2022-08-09T13:08:58.661Z,35.96
2022-08-09T13:14:37.029Z,35.84
2022-08-09T13:20:10.277Z,35.72
2022-08-09T13:24:54.354Z,35.11
2022-08-09T13:30:03.544Z,35.48
2022-08-09T13:35:01.603Z,34.87
2022-08-09T13:41:51.049Z,35.13
2022-08-09T13:45:17.984Z,34.98
2022-08-09T13:50:29.936Z,35.27
2022-08-09T13:55:29.177Z,35.36
2022-08-09T14:00:29.472Z,35.32
2022-08-09T14:05:59.912Z,35.44
2022-08-09T14:10:50.614Z,35.53
2022-08-09T14:16:09.756Z,35.28
2022-08-09T14:21:08.769Z,35.57
2022-08-09T14:26:06.677Z,35.37
2022-08-09T14:31:07.973Z,35.35
2022-08-09T14:36:20.886Z,35.44
2022-08-09T14:41:24.072Z,35.57
2022-08-09T14:46:55.485Z,35.16
2022-08-09T14:51:59.013Z,35.15
2022-08-09T14:56:58.872Z,35.37
2022-08-09T15:01:57.210Z,35.71
2022-08-09T15:06:55.637Z,35.79
2022-08-09T15:11:52.664Z,35.27
2022-08-09T15:16:50.748Z,34.97
2022-08-09T15:21:54.683Z,35.33
2022-08-09T15:26:59.809Z,35.10
2022-08-09T15:32:00.231Z,34.78
2022-08-09T15:37:10.095Z,34.51
2022-08-09T15:42:09.055Z,33.94
2022-08-09T15:47:07.550Z,34.46
2022-08-09T15:52:15.312Z,34.36
2022-08-09T16:02:38.657Z,34.39
2022-08-09T16:07:49.489Z,34.43
2022-08-09T16:12:53.502Z,34.53
2022-08-09T16:17:52.904Z,34.03
2022-08-09T16:22:53.421Z,34.51
2022-08-09T16:28:44.762Z,34.64
2022-08-09T16:33:52.769Z,34.56
2022-08-09T16:38:53.368Z,34.22
2022-08-09T16:43:52.181Z,34.38
2022-08-09T16:49:05.933Z,34.00
2022-08-09T16:55:04.129Z,33.40
2022-08-09T17:00:09.691Z,33.26
2022-08-09T17:06:08.007Z,33.81
2022-08-09T17:11:24.541Z,33.41
2022-08-09T17:16:45.004Z,33.19
2022-08-09T17:22:07.833Z,33.33
2022-08-09T17:27:18.418Z,33.41
2022-08-09T17:32:20.257Z,32.82
2022-08-09T17:38:32.910Z,33.20
2022-08-09T17:44:38.840Z,33.05
2022-08-09T17:49:50.803Z,32.60
2022-08-09T17:55:05.662Z,31.46
2022-08-09T18:00:10.126Z,31.33
2022-08-09T18:05:22.251Z,31.44
2022-08-09T18:10:31.645Z,30.94
2022-08-09T18:16:05.421Z,30.61
2022-08-09T18:21:23.565Z,30.78
2022-08-09T18:26:37.898Z,30.28
2022-08-09T18:31:55.951Z,30.67
2022-08-09T18:37:10.515Z,30.31
2022-08-09T18:42:31.055Z,30.84
2022-08-09T18:47:50.099Z,31.06
2022-08-09T18:53:07.306Z,30.57
2022-08-09T18:58:12.804Z,30.02
2022-08-09T19:03:29.753Z,28.31
2022-08-09T19:10:12.816Z,27.47
2022-08-09T19:14:49.166Z,26.15
2022-08-09T19:20:00.778Z,25.76
2022-08-09T19:30:28.245Z,25.91
2022-08-09T19:35:56.714Z,25.96
2022-08-09T19:41:04.598Z,26.20
2022-08-09T19:46:14.393Z,26.02
2022-08-09T19:51:16.529Z,25.67
2022-08-09T19:56:18.520Z,25.86
2022-08-09T20:01:28.117Z,26.11
2022-08-09T20:06:45.523Z,26.47
2022-08-09T20:11:55.588Z,26.68
2022-08-09T20:17:00.015Z,26.63
2022-08-09T20:22:10.207Z,26.81
2022-08-09T20:27:17.090Z,27.25
2022-08-09T20:32:33.859Z,27.34
2022-08-09T20:38:20.710Z,27.41
2022-08-09T20:43:18.493Z,27.30
2022-08-09T20:48:21.920Z,27.85
2022-08-09T20:53:36.662Z,27.61
2022-08-09T20:58:43.532Z,27.93
2022-08-09T21:05:48.942Z,28.04
2022-08-09T21:08:58.836Z,27.98
2022-08-09T21:14:00.557Z,28.02
2022-08-09T21:19:08.287Z,27.36
2022-08-09T21:24:28.538Z,27.20
2022-08-09T21:29:30.477Z,27.30
2022-08-09T21:34:54.807Z,26.88
2022-08-09T21:39:54.362Z,27.15
2022-08-09T21:44:56.683Z,26.87
2022-08-09T21:49:54.418Z,26.90
2022-08-09T21:55:10.313Z,26.60
2022-08-09T22:00:26.005Z,26.64
2022-08-09T22:05:37.106Z,26.11
2022-08-09T22:10:36.027Z,26.49
2022-08-09T22:15:55.787Z,26.12
2022-08-09T22:20:55.897Z,26.24
2022-08-09T22:26:05.462Z,25.81
2022-08-09T22:31:06.622Z,25.87
2022-08-09T22:36:04.851Z,25.78
2022-08-09T22:48:14.692Z,25.51
2022-08-09T22:51:38.275Z,25.08
2022-08-09T22:56:36.802Z,25.37
2022-08-09T23:01:35.116Z,24.89
2022-08-09T23:06:47.031Z,25.20
2022-08-09T23:11:48.760Z,25.30
2022-08-09T23:16:46.845Z,24.77
2022-08-09T23:22:03.740Z,25.00
2022-08-09T23:27:01.052Z,25.05
2022-08-09T23:31:59.148Z,24.98
2022-08-09T23:36:56.577Z,25.03
2022-08-09T23:41:55.122Z,24.32
2022-08-09T23:46:52.747Z,24.79
2022-08-09T23:51:59.315Z,24.69
2022-08-09T23:56:58.090Z,24.40
